Página principal
METAR-TAF:

METAR-TAF

Aeroportos :

Aeroporto Internacional de Banjul

Banjul, Gâmbia

latitude: 13-21N, longitude: 016-48W, altura: 36 m

Observação actual do tempo

O boletim foi feito há 28 minutos, às 04:00 UTC
Vento 3 kt com direcção variável
Temperatura 27°C
Humidade 84%
Pressão 1011 hPa
Visibilidade 10 km ou mais
Nuvens dispersasa uma altura de 1000 ft

METAR: GBYD 230400Z VRB03KT 9999 SCT010 27/24 Q1011

Hora: 04:28 (04:28 UTC)

Previsão

O boletim foi feito há 5 horas e 28 minutos, às 23:00 UTC
Previsão válida de 23 às 00 UTC a 24 às 06 UTC
Vento 6 kt de oeste
Visibilidade 10 km ou mais
Nuvens fragmentadasa uma altura de 1100 ft
Tornando-se
de 23 às 09 UTC a 23 às 11 UTC
Nuvens dispersasa uma altura de 1200 ft

TAF: GBYD 222300Z 2300/2406 26006KT 9999 BKN011 BECMG 2309/2311 SCT012

Observações e previsões do tempo de mais de 4000 aeroportos (mensagens METAR e TAF).

As estações disponíveis são os pontos amarelos e vermelhos sobre o mapa.

Mova o rato sobre o mapa para ver o nome da estação.

Depois clique no ponto para visualizar as observações e previsões meteorológicas.

Para alterar o mapa : clique nos botões verdes com uma cruz preta para aumentar o zoom; no botão verde com uma pitada de zoom; ou nas setas verdes para mapas adjacentes.


METAR-TAF: